Time;durP1;ratioP1;P1;durP2;ratioP2;P2;SDS_P1;SDS_P2;PMS_P1;PMS_P2;Temp;Humidity;BMP_temperature;BMP_pressure;BME280_temperature;BME280_humidity;BME280_pressure;Samples;Min_cycle;Max_cycle;Signal;HPM_P1;HPM_P2
2022/04/17 00:00:26;;;;;;;2.70;2.10;;;;;;;;;;5017846;28;20184;-78
2022/04/17 00:02:53;;;;;;;3.03;2.20;;;;;;;;;;5002308;28;20228;-78
2022/04/17 00:05:19;;;;;;;4.70;2.27;;;;;;;;;;5000891;28;20209;-78
2022/04/17 00:07:46;;;;;;;2.70;2.10;;;;;;;;;;5002135;28;20242;-78
2022/04/17 00:10:13;;;;;;;3.13;2.20;;;;;;;;;;5014522;28;20221;-78
2022/04/17 00:12:40;;;;;;;3.23;2.20;;;;;;;;;;5001952;28;20277;-78
2022/04/17 00:15:09;;;;;;;3.67;2.10;;;;;;;;;;5000991;28;20289;-78
2022/04/17 00:17:41;;;;;;;3.13;2.20;;;;;;;;;;4984559;28;20210;-78
2022/04/17 00:20:09;;;;;;;2.40;2.17;;;;;;;;;;5001976;28;20196;-78
2022/04/17 00:22:35;;;;;;;2.47;2.20;;;;;;;;;;4998479;28;20202;-77
2022/04/17 00:25:02;;;;;;;2.30;2.00;;;;;;;;;;5009541;28;20195;-77
2022/04/17 00:27:28;;;;;;;2.93;2.10;;;;;;;;;;5009715;28;20238;-78
2022/04/17 00:29:57;;;;;;;2.63;1.93;;;;;;;;;;5007513;28;20225;-78
2022/04/17 00:32:25;;;;;;;2.97;2.10;;;;;;;;;;5007834;28;20659;-78
2022/04/17 00:34:51;;;;;;;3.03;2.20;;;;;;;;;;5007454;28;20222;-77
2022/04/17 00:37:18;;;;;;;2.43;1.93;;;;;;;;;;5007041;28;20725;-78
2022/04/17 00:39:44;;;;;;;2.73;2.30;;;;;;;;;;5007269;28;20191;-78
2022/04/17 00:42:10;;;;;;;2.23;2.03;;;;;;;;;;5006800;28;20190;-77
2022/04/17 00:44:37;;;;;;;4.00;2.10;;;;;;;;;;5006006;28;20781;-79
2022/04/17 00:47:04;;;;;;;4.03;2.30;;;;;;;;;;5002763;28;20261;-77
2022/04/17 00:49:31;;;;;;;3.63;2.40;;;;;;;;;;5007798;28;20187;-78
2022/04/17 00:52:00;;;;;;;3.10;2.30;;;;;;;;;;5004999;28;20189;-77
2022/04/17 00:54:27;;;;;;;3.13;2.03;;;;;;;;;;5009596;28;20256;-77
2022/04/17 00:56:53;;;;;;;2.10;1.90;;;;;;;;;;5001172;28;20207;-77
2022/04/17 00:59:22;;;;;;;2.43;2.20;;;;;;;;;;5000147;28;20330;-77
2022/04/17 01:01:48;;;;;;;3.33;1.97;;;;;;;;;;5002153;28;20276;-77
2022/04/17 01:04:15;;;;;;;2.67;2.00;;;;;;;;;;4986994;28;20198;-77
2022/04/17 01:06:45;;;;;;;2.47;2.10;;;;;;;;;;5003608;28;20211;-77
2022/04/17 01:09:12;;;;;;;3.40;2.33;;;;;;;;;;5004457;28;20195;-77
2022/04/17 01:11:39;;;;;;;2.83;2.20;;;;;;;;;;4986920;28;20203;-77
2022/04/17 01:14:08;;;;;;;2.67;2.10;;;;;;;;;;5002867;28;20539;-77
2022/04/17 01:16:36;;;;;;;3.87;2.40;;;;;;;;;;5001254;28;20211;-77
2022/04/17 01:19:11;;;;;;;2.60;2.30;;;;;;;;;;5003880;28;20207;-77
2022/04/17 01:21:40;;;;;;;3.23;2.20;;;;;;;;;;5001076;28;20187;-77
2022/04/17 01:26:57;;;;;;;2.80;2.10;;;;;;;;;;5000823;28;20242;-77
2022/04/17 01:29:25;;;;;;;3.10;2.20;;;;;;;;;;4999314;28;20214;-77
2022/04/17 01:31:52;;;;;;;3.60;2.00;;;;;;;;;;5004941;28;20189;-77
2022/04/17 01:34:20;;;;;;;3.43;2.00;;;;;;;;;;5004179;28;20682;-77
2022/04/17 01:36:49;;;;;;;3.10;1.87;;;;;;;;;;5002764;28;20691;-77
2022/04/17 01:39:16;;;;;;;2.70;2.10;;;;;;;;;;5002376;28;20190;-77
2022/04/17 01:41:46;;;;;;;4.10;2.53;;;;;;;;;;5001638;28;20191;-77
2022/04/17 01:44:12;;;;;;;3.17;2.30;;;;;;;;;;5005097;28;20241;-77
2022/04/17 01:46:39;;;;;;;3.20;2.23;;;;;;;;;;4996935;28;20229;-77
2022/04/17 01:49:07;;;;;;;4.33;2.63;;;;;;;;;;4998725;28;20285;-77
2022/04/17 01:51:35;;;;;;;3.00;2.13;;;;;;;;;;5001037;28;20191;-77
2022/04/17 01:54:03;;;;;;;2.40;2.20;;;;;;;;;;4999640;28;20246;-77
2022/04/17 01:56:34;;;;;;;5.10;2.77;;;;;;;;;;5006530;28;20207;-77
2022/04/17 01:59:01;;;;;;;3.70;2.40;;;;;;;;;;5002550;28;20194;-77
2022/04/17 02:01:27;;;;;;;4.27;2.33;;;;;;;;;;4983745;28;20187;-77
2022/04/17 02:03:55;;;;;;;2.57;2.10;;;;;;;;;;4998882;28;20218;-77
2022/04/17 02:06:22;;;;;;;2.63;1.93;;;;;;;;;;5001720;28;20226;-77
2022/04/17 02:08:51;;;;;;;2.83;2.10;;;;;;;;;;4998965;28;20186;-77
2022/04/17 02:11:18;;;;;;;3.03;2.20;;;;;;;;;;5000266;28;20199;-77
2022/04/17 02:13:45;;;;;;;2.50;2.27;;;;;;;;;;5002260;28;20190;-77
2022/04/17 02:16:12;;;;;;;4.93;2.90;;;;;;;;;;5005721;28;20217;-77
2022/04/17 02:18:39;;;;;;;3.07;2.10;;;;;;;;;;5004033;28;20189;-77
2022/04/17 02:21:06;;;;;;;4.43;2.73;;;;;;;;;;5004058;28;20613;-77
2022/04/17 02:23:33;;;;;;;3.20;2.40;;;;;;;;;;5020670;28;20187;-77
2022/04/17 02:26:00;;;;;;;4.57;2.50;;;;;;;;;;5003409;28;20615;-77
2022/04/17 02:28:29;;;;;;;5.37;3.00;;;;;;;;;;5003374;28;20203;-77
2022/04/17 02:30:56;;;;;;;2.93;2.33;;;;;;;;;;5002228;28;20254;-77
2022/04/17 02:33:23;;;;;;;4.27;2.20;;;;;;;;;;5003995;28;20222;-77
2022/04/17 02:36:01;;;;;;;5.83;3.20;;;;;;;;;;5005345;28;20207;-77
2022/04/17 02:38:30;;;;;;;5.30;2.30;;;;;;;;;;5006396;28;20270;-76
2022/04/17 02:40:58;;;;;;;3.43;2.50;;;;;;;;;;5008542;28;20237;-77
2022/04/17 02:43:27;;;;;;;4.23;2.70;;;;;;;;;;5004589;28;20271;-77
2022/04/17 02:45:54;;;;;;;4.07;2.70;;;;;;;;;;5005697;28;20297;-77
2022/04/17 02:48:21;;;;;;;3.80;2.70;;;;;;;;;;5004436;28;20195;-77
2022/04/17 02:50:48;;;;;;;5.13;2.80;;;;;;;;;;5005822;28;20515;-77
2022/04/17 02:53:16;;;;;;;4.37;2.50;;;;;;;;;;5004459;28;20262;-77
2022/04/17 02:55:43;;;;;;;4.33;2.30;;;;;;;;;;5003460;28;20262;-77
2022/04/17 02:58:10;;;;;;;3.07;2.43;;;;;;;;;;5002660;28;20290;-77
2022/04/17 03:05:36;;;;;;;4.03;2.80;;;;;;;;;;5005622;28;20194;-77
2022/04/17 03:06:10;;;;;;;3.40;2.50;;;;;;;;;;5004413;28;20269;-77
2022/04/17 03:08:41;;;;;;;3.37;2.70;;;;;;;;;;5001542;28;20202;-77
2022/04/17 03:11:08;;;;;;;3.77;2.27;;;;;;;;;;5005885;28;20207;-77
2022/04/17 03:13:35;;;;;;;4.20;2.53;;;;;;;;;;5009294;28;20207;-77
2022/04/17 03:16:02;;;;;;;4.90;3.00;;;;;;;;;;5006808;28;20719;-77
2022/04/17 03:18:31;;;;;;;4.07;2.90;;;;;;;;;;4989388;28;20683;-77
2022/04/17 03:20:58;;;;;;;7.83;3.00;;;;;;;;;;5007215;28;20282;-77
2022/04/17 03:23:25;;;;;;;3.77;2.83;;;;;;;;;;5009735;28;20183;-77
2022/04/17 03:25:52;;;;;;;2.97;2.40;;;;;;;;;;5007369;28;20203;-77
2022/04/17 03:28:19;;;;;;;3.80;2.50;;;;;;;;;;5005389;28;20178;-77
2022/04/17 03:30:48;;;;;;;4.47;2.53;;;;;;;;;;4975495;28;20187;-77
2022/04/17 03:33:18;;;;;;;3.20;2.63;;;;;;;;;;5006610;28;20191;-77
2022/04/17 03:35:45;;;;;;;3.90;2.63;;;;;;;;;;5008765;28;20215;-77
2022/04/17 03:38:12;;;;;;;4.57;2.60;;;;;;;;;;5005927;28;20210;-77
2022/04/17 03:40:42;;;;;;;3.87;2.70;;;;;;;;;;5001520;28;20191;-77
2022/04/17 03:43:10;;;;;;;3.87;2.70;;;;;;;;;;4984958;28;20191;-77
2022/04/17 03:45:40;;;;;;;4.13;3.00;;;;;;;;;;5002577;28;20379;-77
2022/04/17 03:48:07;;;;;;;5.13;2.83;;;;;;;;;;5006021;28;20245;-77
2022/04/17 03:50:33;;;;;;;7.50;2.97;;;;;;;;;;5012320;28;20190;-77
2022/04/17 03:52:59;;;;;;;5.13;3.03;;;;;;;;;;5009875;28;20191;-77
2022/04/17 03:55:26;;;;;;;4.47;3.17;;;;;;;;;;4986751;28;20696;-77
2022/04/17 03:57:52;;;;;;;3.60;2.70;;;;;;;;;;5004503;28;20194;-77
2022/04/17 04:00:19;;;;;;;3.27;2.60;;;;;;;;;;5020015;28;20195;-77
2022/04/17 04:02:49;;;;;;;2.83;2.53;;;;;;;;;;5004098;28;20191;-77
2022/04/17 04:05:15;;;;;;;3.60;2.70;;;;;;;;;;5002019;28;20187;-77
2022/04/17 04:07:46;;;;;;;5.90;2.80;;;;;;;;;;5006277;28;20214;-77
2022/04/17 04:10:12;;;;;;;3.07;2.60;;;;;;;;;;5001791;28;20199;-77
2022/04/17 04:12:39;;;;;;;3.27;2.70;;;;;;;;;;5006842;28;20215;-76
2022/04/17 04:15:07;;;;;;;3.73;2.70;;;;;;;;;;5005658;28;20211;-77
2022/04/17 04:17:36;;;;;;;3.70;2.90;;;;;;;;;;5001544;28;20245;-77
2022/04/17 04:20:07;;;;;;;5.60;2.87;;;;;;;;;;5005709;28;20262;-77
2022/04/17 04:22:34;;;;;;;5.80;3.27;;;;;;;;;;4972545;28;20191;-77
2022/04/17 04:25:00;;;;;;;3.63;2.93;;;;;;;;;;5001552;28;20241;-77
2022/04/17 04:30:12;;;;;;;3.70;2.63;;;;;;;;;;5004851;28;20195;-77
2022/04/17 04:32:39;;;;;;;3.87;2.47;;;;;;;;;;5015685;28;20191;-77
2022/04/17 04:35:08;;;;;;;4.23;2.60;;;;;;;;;;5001181;28;20296;-77
2022/04/17 04:37:35;;;;;;;4.67;2.50;;;;;;;;;;5007624;28;20243;-76
2022/04/17 04:40:02;;;;;;;4.47;2.50;;;;;;;;;;5004374;28;20191;-77
2022/04/17 04:42:29;;;;;;;5.93;3.17;;;;;;;;;;5003738;28;20183;-77
2022/04/17 04:47:43;;;;;;;4.37;2.83;;;;;;;;;;4982176;28;20325;-77
2022/04/17 04:50:09;;;;;;;4.07;2.60;;;;;;;;;;4984973;28;20201;-77
2022/04/17 04:52:37;;;;;;;4.10;2.83;;;;;;;;;;5006315;28;20211;-77
2022/04/17 04:55:04;;;;;;;3.10;2.70;;;;;;;;;;5002102;28;20218;-77
2022/04/17 04:57:31;;;;;;;3.77;2.90;;;;;;;;;;5005735;28;20230;-77
2022/04/17 05:00:00;;;;;;;4.57;2.80;;;;;;;;;;5005069;28;20191;-77
2022/04/17 05:02:27;;;;;;;3.33;2.53;;;;;;;;;;5001504;28;20187;-77
2022/04/17 05:04:54;;;;;;;4.83;2.53;;;;;;;;;;5003547;28;20191;-77
2022/04/17 05:07:20;;;;;;;3.90;2.67;;;;;;;;;;5004163;28;20577;-78
2022/04/17 05:09:47;;;;;;;3.80;2.77;;;;;;;;;;4986638;28;20195;-76
2022/04/17 05:12:16;;;;;;;3.53;2.87;;;;;;;;;;4986705;28;20194;-77
2022/04/17 05:15:03;;;;;;;3.77;2.60;;;;;;;;;;4987716;28;20742;-77
2022/04/17 05:17:30;;;;;;;4.23;2.90;;;;;;;;;;5004500;28;20248;-77
2022/04/17 05:19:57;;;;;;;4.13;2.83;;;;;;;;;;5002968;28;20264;-77
2022/04/17 05:22:31;;;;;;;3.80;2.90;;;;;;;;;;4985287;28;20422;-77
2022/04/17 05:24:58;;;;;;;3.53;2.47;;;;;;;;;;5004050;28;20191;-77
2022/04/17 05:27:24;;;;;;;2.83;2.40;;;;;;;;;;4999806;28;20726;-77
2022/04/17 05:29:53;;;;;;;2.70;2.50;;;;;;;;;;4999908;28;20574;-77
2022/04/17 05:32:20;;;;;;;3.50;2.63;;;;;;;;;;4995767;28;20627;-76
2022/04/17 05:34:47;;;;;;;3.93;2.50;;;;;;;;;;4998068;28;20242;-77
2022/04/17 05:37:17;;;;;;;3.30;2.63;;;;;;;;;;5009229;28;20555;-79
2022/04/17 05:39:43;;;;;;;2.97;2.47;;;;;;;;;;4997319;28;20191;-77
2022/04/17 05:42:10;;;;;;;5.37;2.90;;;;;;;;;;4996592;28;20191;-79
2022/04/17 05:44:38;;;;;;;3.33;2.80;;;;;;;;;;4996228;28;20193;-77
2022/04/17 05:47:09;;;;;;;3.23;2.43;;;;;;;;;;5000577;28;20210;-77
2022/04/17 05:49:36;;;;;;;3.40;2.40;;;;;;;;;;5002226;28;20593;-77
2022/04/17 05:52:06;;;;;;;3.47;2.50;;;;;;;;;;4998088;28;20191;-78
2022/04/17 05:54:33;;;;;;;4.23;2.40;;;;;;;;;;5002638;28;20313;-78
2022/04/17 05:57:01;;;;;;;2.93;2.47;;;;;;;;;;5000441;28;20195;-78
2022/04/17 05:59:28;;;;;;;3.43;2.40;;;;;;;;;;5024062;28;20194;-78
2022/04/17 06:01:55;;;;;;;3.20;2.50;;;;;;;;;;5012153;28;20186;-78
2022/04/17 06:04:22;;;;;;;3.90;2.87;;;;;;;;;;5015799;28;20194;-78
2022/04/17 06:06:48;;;;;;;4.20;2.80;;;;;;;;;;5005928;28;20315;-77
2022/04/17 06:09:15;;;;;;;3.10;2.70;;;;;;;;;;5006058;28;20191;-78
2022/04/17 06:11:42;;;;;;;5.43;2.70;;;;;;;;;;5006793;28;20210;-78
2022/04/17 06:14:08;;;;;;;4.50;2.90;;;;;;;;;;4999329;28;20273;-78
2022/04/17 06:16:41;;;;;;;3.80;2.83;;;;;;;;;;5005917;28;20207;-78
2022/04/17 06:19:11;;;;;;;4.87;2.97;;;;;;;;;;5004438;28;20282;-78
2022/04/17 06:21:44;;;;;;;4.23;2.53;;;;;;;;;;5004337;28;20681;-78
2022/04/17 06:24:10;;;;;;;3.53;2.70;;;;;;;;;;4998794;28;20194;-78
2022/04/17 06:26:37;;;;;;;4.97;3.13;;;;;;;;;;5007579;28;20224;-78
2022/04/17 06:29:08;;;;;;;3.90;2.70;;;;;;;;;;5008519;28;20221;-81
2022/04/17 06:31:43;;;;;;;3.67;2.50;;;;;;;;;;5009598;28;20202;-83
2022/04/17 06:34:09;;;;;;;3.57;2.60;;;;;;;;;;5006205;28;20234;-80
2022/04/17 06:36:36;;;;;;;3.97;2.53;;;;;;;;;;4994743;28;20222;-81
2022/04/17 06:39:02;;;;;;;3.03;2.30;;;;;;;;;;5021387;28;20186;-80
2022/04/17 06:41:29;;;;;;;2.87;2.47;;;;;;;;;;4989890;28;20184;-80
2022/04/17 06:43:55;;;;;;;2.77;2.30;;;;;;;;;;5010298;28;20175;-77
2022/04/17 06:46:22;;;;;;;3.27;2.43;;;;;;;;;;5013211;28;20290;-84
2022/04/17 06:48:49;;;;;;;3.97;2.47;;;;;;;;;;4990640;28;20700;-79
2022/04/17 06:51:19;;;;;;;2.93;2.30;;;;;;;;;;5011792;28;20246;-83
2022/04/17 06:53:49;;;;;;;2.77;2.30;;;;;;;;;;5016771;28;20789;-81
2022/04/17 06:56:18;;;;;;;3.03;2.30;;;;;;;;;;5032993;28;20278;-83
2022/04/17 06:58:47;;;;;;;2.77;2.40;;;;;;;;;;5007117;28;20183;-80
2022/04/17 07:01:19;;;;;;;2.60;2.20;;;;;;;;;;5010789;28;20187;-80
2022/04/17 07:03:51;;;;;;;3.63;2.60;;;;;;;;;;4993846;28;20333;-81
2022/04/17 07:06:18;;;;;;;2.67;2.20;;;;;;;;;;5007597;28;20203;-79
2022/04/17 07:08:47;;;;;;;2.77;2.20;;;;;;;;;;5008416;28;20187;-80
2022/04/17 07:11:19;;;;;;;5.93;2.50;;;;;;;;;;5007178;28;20265;-80
2022/04/17 07:13:47;;;;;;;4.57;2.57;;;;;;;;;;5007587;28;20191;-80
2022/04/17 07:16:13;;;;;;;2.70;2.00;;;;;;;;;;5009204;28;20203;-80
2022/04/17 07:18:40;;;;;;;2.47;2.00;;;;;;;;;;5005417;28;20182;-80
2022/04/17 07:21:06;;;;;;;2.50;2.10;;;;;;;;;;5009695;28;20179;-79
2022/04/17 07:24:06;;;;;;;4.00;2.10;;;;;;;;;;4961121;28;20303;-79
2022/04/17 07:26:35;;;;;;;2.93;2.30;;;;;;;;;;4972761;28;20219;-80
2022/04/17 07:29:02;;;;;;;3.60;2.23;;;;;;;;;;4998736;28;20192;-80
2022/04/17 07:31:31;;;;;;;2.50;2.20;;;;;;;;;;5000888;28;20192;-80
2022/04/17 07:34:00;;;;;;;4.07;2.00;;;;;;;;;;5000149;28;20182;-80
2022/04/17 07:36:29;;;;;;;1.90;1.70;;;;;;;;;;4988490;28;20508;-80
2022/04/17 07:38:56;;;;;;;2.77;2.23;;;;;;;;;;5005370;28;20194;-80
2022/04/17 07:41:26;;;;;;;2.53;2.20;;;;;;;;;;5005564;28;20198;-81
2022/04/17 07:43:53;;;;;;;2.90;2.30;;;;;;;;;;5004084;28;20187;-79
2022/04/17 07:46:20;;;;;;;2.27;1.80;;;;;;;;;;5023012;28;20203;-79
2022/04/17 07:48:47;;;;;;;2.30;2.00;;;;;;;;;;5005840;28;20192;-78
2022/04/17 07:51:14;;;;;;;2.27;2.07;;;;;;;;;;5007853;28;20190;-80
2022/04/17 07:53:45;;;;;;;2.77;2.20;;;;;;;;;;5005998;28;20195;-79
2022/04/17 07:56:11;;;;;;;2.27;1.70;;;;;;;;;;5009063;28;20215;-80
2022/04/17 07:58:39;;;;;;;2.73;2.07;;;;;;;;;;5007243;28;20521;-79
2022/04/17 08:01:14;;;;;;;1.97;1.77;;;;;;;;;;5005128;28;20683;-79
2022/04/17 08:06:09;;;;;;;3.23;2.00;;;;;;;;;;5003892;28;20277;-81
2022/04/17 08:08:39;;;;;;;3.00;2.00;;;;;;;;;;4991488;28;20199;-80
2022/04/17 08:11:06;;;;;;;2.70;1.97;;;;;;;;;;5008480;28;20206;-80
2022/04/17 08:13:33;;;;;;;2.70;1.80;;;;;;;;;;5001211;28;20223;-79
2022/04/17 08:16:00;;;;;;;1.90;1.70;;;;;;;;;;5007746;28;20219;-79
2022/04/17 08:18:27;;;;;;;3.10;2.10;;;;;;;;;;4987888;28;20198;-79
2022/04/17 08:20:53;;;;;;;3.73;1.87;;;;;;;;;;5006416;28;20195;-79
2022/04/17 08:23:20;;;;;;;3.10;1.70;;;;;;;;;;5004153;28;20612;-78
2022/04/17 08:25:50;;;;;;;1.97;1.70;;;;;;;;;;4985934;28;20273;-78
2022/04/17 08:28:19;;;;;;;1.90;1.70;;;;;;;;;;5005719;28;20274;-79
2022/04/17 08:30:48;;;;;;;2.50;1.60;;;;;;;;;;5009640;28;20282;-79
2022/04/17 08:33:14;;;;;;;6.43;1.80;;;;;;;;;;5008417;28;20659;-79
2022/04/17 08:35:48;;;;;;;3.10;1.97;;;;;;;;;;5009788;28;20226;-79
2022/04/17 08:38:16;;;;;;;2.60;1.70;;;;;;;;;;5011612;28;20187;-82
2022/04/17 08:40:42;;;;;;;2.37;1.60;;;;;;;;;;5016208;28;20802;-79
2022/04/17 08:43:12;;;;;;;1.90;1.70;;;;;;;;;;5020869;28;20618;-79
2022/04/17 08:45:44;;;;;;;2.50;1.60;;;;;;;;;;5006257;28;20192;-79
2022/04/17 08:48:10;;;;;;;2.33;1.70;;;;;;;;;;5023757;28;20187;-79
2022/04/17 08:50:37;;;;;;;3.50;1.87;;;;;;;;;;5008986;28;20195;-79
2022/04/17 08:53:05;;;;;;;2.30;1.80;;;;;;;;;;5009162;28;20214;-79
2022/04/17 08:55:32;;;;;;;2.93;1.83;;;;;;;;;;4986394;28;20223;-79
2022/04/17 08:57:59;;;;;;;3.20;1.70;;;;;;;;;;5007218;28;20250;-77
2022/04/17 09:00:25;;;;;;;3.40;1.90;;;;;;;;;;4998001;28;20217;-80
2022/04/17 09:02:52;;;;;;;3.60;1.73;;;;;;;;;;5007184;28;20202;-80
2022/04/17 09:05:19;;;;;;;4.57;1.90;;;;;;;;;;4987621;28;20195;-76
2022/04/17 09:07:56;;;;;;;2.23;1.80;;;;;;;;;;4999786;28;20699;-77
2022/04/17 09:10:30;;;;;;;2.27;1.60;;;;;;;;;;4987419;28;20199;-78
2022/04/17 09:13:00;;;;;;;2.37;1.80;;;;;;;;;;5003668;28;20195;-78
2022/04/17 09:15:27;;;;;;;3.87;1.90;;;;;;;;;;5003791;28;20593;-76
2022/04/17 09:17:53;;;;;;;2.53;1.70;;;;;;;;;;5001155;28;20743;-77
2022/04/17 09:20:45;;;;;;;2.27;1.90;;;;;;;;;;4997275;28;20615;-79
2022/04/17 09:23:12;;;;;;;2.17;1.63;;;;;;;;;;5005144;28;20555;-78
2022/04/17 09:25:39;;;;;;;2.10;1.73;;;;;;;;;;5005135;28;20667;-77
2022/04/17 09:28:07;;;;;;;1.90;1.60;;;;;;;;;;4990798;28;20611;-77
2022/04/17 09:30:34;;;;;;;1.93;1.73;;;;;;;;;;5006162;28;20722;-77
2022/04/17 09:33:13;;;;;;;3.07;1.70;;;;;;;;;;5004075;28;20227;-77
2022/04/17 09:35:53;;;;;;;1.80;1.50;;;;;;;;;;5006348;28;20225;-77
2022/04/17 09:38:23;;;;;;;2.87;1.50;;;;;;;;;;4987795;28;20198;-77
2022/04/17 09:40:50;;;;;;;2.23;1.70;;;;;;;;;;4984858;28;20190;-77
2022/04/17 09:43:19;;;;;;;3.03;1.90;;;;;;;;;;4996208;28;20195;-77
2022/04/17 09:46:01;;;;;;;3.47;1.97;;;;;;;;;;4988034;28;20317;-77
2022/04/17 09:48:36;;;;;;;3.30;1.73;;;;;;;;;;5006511;28;20572;-77
2022/04/17 09:51:25;;;;;;;1.93;1.60;;;;;;;;;;5004334;28;20187;-77
2022/04/17 09:53:58;;;;;;;2.40;2.10;;;;;;;;;;4983061;28;20195;-77
2022/04/17 09:56:35;;;;;;;1.73;1.60;;;;;;;;;;5005611;28;20211;-76
2022/04/17 09:59:20;;;;;;;3.63;1.50;;;;;;;;;;5003522;28;20292;-77
2022/04/17 10:01:50;;;;;;;1.80;1.47;;;;;;;;;;5000007;28;20596;-77
2022/04/17 10:04:19;;;;;;;2.90;1.60;;;;;;;;;;5006906;28;20187;-77
2022/04/17 10:06:52;;;;;;;2.60;1.60;;;;;;;;;;4999112;28;20260;-77
2022/04/17 10:09:26;;;;;;;3.80;1.87;;;;;;;;;;4994172;28;20187;-77
2022/04/17 10:11:56;;;;;;;2.40;1.63;;;;;;;;;;4999842;28;20206;-77
2022/04/17 10:14:25;;;;;;;2.20;1.60;;;;;;;;;;4996765;28;20211;-77
2022/04/17 10:16:54;;;;;;;3.07;1.60;;;;;;;;;;4986641;28;20203;-77
2022/04/17 10:19:25;;;;;;;4.47;1.63;;;;;;;;;;5004343;28;20547;-76
2022/04/17 10:21:58;;;;;;;2.47;1.70;;;;;;;;;;5006471;28;20194;-77
2022/04/17 10:24:25;;;;;;;2.63;1.60;;;;;;;;;;5004657;28;20179;-77
2022/04/17 10:26:54;;;;;;;2.00;1.60;;;;;;;;;;5001230;28;20210;-77
2022/04/17 10:29:40;;;;;;;2.23;1.73;;;;;;;;;;5003702;28;20199;-77
2022/04/17 10:32:07;;;;;;;2.23;1.50;;;;;;;;;;5002155;28;20182;-77
2022/04/17 10:34:43;;;;;;;1.70;1.60;;;;;;;;;;5012975;28;20213;-77
2022/04/17 10:37:31;;;;;;;29.30;2.77;;;;;;;;;;4995424;28;20285;-77
2022/04/17 10:39:59;;;;;;;2.37;1.80;;;;;;;;;;5020617;28;20545;-77
2022/04/17 10:42:53;;;;;;;5.10;1.80;;;;;;;;;;5003924;28;20270;-77
2022/04/17 10:45:20;;;;;;;2.27;1.60;;;;;;;;;;5002759;28;20198;-77
2022/04/17 10:48:03;;;;;;;2.97;1.70;;;;;;;;;;5006039;28;20211;-77
2022/04/17 10:50:48;;;;;;;2.10;1.60;;;;;;;;;;5005013;28;20283;-77
2022/04/17 10:53:24;;;;;;;2.57;1.60;;;;;;;;;;5008159;28;20811;-77
2022/04/17 10:56:03;;;;;;;3.60;1.53;;;;;;;;;;5007364;28;20231;-77
2022/04/17 10:58:44;;;;;;;1.70;1.30;;;;;;;;;;4989170;28;20275;-77
2022/04/17 11:01:12;;;;;;;1.83;1.70;;;;;;;;;;5006624;28;20191;-75
2022/04/17 11:03:53;;;;;;;2.10;1.50;;;;;;;;;;5007896;28;20191;-77
2022/04/17 11:06:32;;;;;;;2.00;1.50;;;;;;;;;;5006529;28;20247;-77
2022/04/17 11:09:12;;;;;;;2.77;1.40;;;;;;;;;;5010516;28;20204;-76
2022/04/17 11:11:39;;;;;;;4.10;1.60;;;;;;;;;;5004276;28;20212;-77
2022/04/17 11:14:11;;;;;;;2.10;1.50;;;;;;;;;;5004315;28;20302;-77
2022/04/17 11:16:46;;;;;;;2.97;1.67;;;;;;;;;;4994427;28;20643;-77
2022/04/17 11:19:17;;;;;;;2.37;1.50;;;;;;;;;;5004109;28;20187;-77
2022/04/17 11:21:45;;;;;;;4.80;1.70;;;;;;;;;;5006256;28;20191;-77
2022/04/17 11:24:11;;;;;;;4.63;1.63;;;;;;;;;;4989312;28;20288;-77
2022/04/17 11:26:56;;;;;;;1.60;1.50;;;;;;;;;;4996953;28;20203;-77
2022/04/17 11:29:41;;;;;;;2.27;1.60;;;;;;;;;;5008845;28;20240;-78
2022/04/17 11:32:19;;;;;;;2.23;1.50;;;;;;;;;;5023318;28;20187;-77
2022/04/17 11:34:53;;;;;;;2.00;1.50;;;;;;;;;;5009862;28;20497;-77
2022/04/17 11:37:26;;;;;;;2.13;1.40;;;;;;;;;;5004172;28;20241;-77
2022/04/17 11:40:19;;;;;;;2.33;1.50;;;;;;;;;;5008677;28;20199;-77
2022/04/17 11:42:51;;;;;;;2.40;1.80;;;;;;;;;;5005724;28;20199;-77
2022/04/17 11:45:22;;;;;;;1.73;1.50;;;;;;;;;;5001397;28;20194;-85
2022/04/17 11:47:53;;;;;;;4.60;1.33;;;;;;;;;;5013386;28;20368;-77
2022/04/17 11:50:27;;;;;;;2.43;1.40;;;;;;;;;;5007796;28;20191;-81
2022/04/17 11:52:55;;;;;;;1.93;1.50;;;;;;;;;;5009730;28;20199;-83
2022/04/17 11:55:35;;;;;;;3.33;1.80;;;;;;;;;;5009014;28;20285;-82
2022/04/17 11:58:09;;;;;;;3.97;1.50;;;;;;;;;;5003185;28;20183;-76
2022/04/17 12:00:42;;;;;;;4.33;1.30;;;;;;;;;;5009298;28;20187;-79
2022/04/17 12:03:11;;;;;;;1.60;1.30;;;;;;;;;;5008054;28;20253;-80
2022/04/17 12:05:45;;;;;;;1.40;1.30;;;;;;;;;;5010440;28;20194;-77
2022/04/17 12:08:20;;;;;;;1.90;1.40;;;;;;;;;;5006434;28;20179;-77
2022/04/17 12:10:53;;;;;;;2.00;1.40;;;;;;;;;;5016668;28;20270;-79
2022/04/17 12:13:24;;;;;;;2.70;1.57;;;;;;;;;;5013386;28;20188;-78
2022/04/17 12:16:04;;;;;;;2.80;1.43;;;;;;;;;;5018567;28;20261;-79
2022/04/17 12:18:31;;;;;;;2.60;1.30;;;;;;;;;;4998712;28;20279;-77
2022/04/17 12:20:58;;;;;;;1.50;1.40;;;;;;;;;;4997778;28;20615;-80
2022/04/17 12:23:29;;;;;;;1.77;1.50;;;;;;;;;;5031938;28;20188;-79
2022/04/17 12:25:59;;;;;;;3.30;1.50;;;;;;;;;;5012914;28;20203;-80
2022/04/17 12:28:26;;;;;;;3.47;1.47;;;;;;;;;;5009294;28;20190;-79
2022/04/17 12:30:58;;;;;;;2.20;1.60;;;;;;;;;;5009735;28;20255;-79
2022/04/17 12:33:29;;;;;;;2.87;1.40;;;;;;;;;;5013137;28;20185;-80
2022/04/17 12:36:25;;;;;;;2.80;1.50;;;;;;;;;;5008334;28;20620;-79
2022/04/17 12:38:57;;;;;;;1.83;1.30;;;;;;;;;;4979793;28;20199;-79
2022/04/17 12:41:30;;;;;;;2.50;1.40;;;;;;;;;;4999075;28;20210;-81
2022/04/17 12:43:57;;;;;;;2.53;1.57;;;;;;;;;;5010290;28;21496;-79
2022/04/17 12:46:28;;;;;;;1.40;1.30;;;;;;;;;;4990119;28;20214;-79
2022/04/17 12:49:04;;;;;;;1.57;1.37;;;;;;;;;;5007444;28;20238;-81
2022/04/17 12:51:31;;;;;;;2.27;1.60;;;;;;;;;;5029009;28;20571;-82
2022/04/17 12:53:58;;;;;;;1.57;1.30;;;;;;;;;;5010878;28;20186;-83
2022/04/17 12:56:26;;;;;;;2.07;1.60;;;;;;;;;;5008006;28;20207;-80
2022/04/17 12:58:56;;;;;;;2.60;1.57;;;;;;;;;;5010698;28;20531;-80
2022/04/17 13:01:27;;;;;;;5.10;1.40;;;;;;;;;;5008152;28;20195;-84
2022/04/17 13:04:11;;;;;;;1.63;1.50;;;;;;;;;;5006830;28;20570;-83
2022/04/17 13:06:38;;;;;;;1.70;1.40;;;;;;;;;;4990059;28;20311;-85
2022/04/17 13:09:06;;;;;;;1.73;1.50;;;;;;;;;;5003896;28;20192;-86
2022/04/17 13:11:39;;;;;;;2.93;1.60;;;;;;;;;;4994570;28;20452;-84
2022/04/17 13:14:07;;;;;;;2.30;1.70;;;;;;;;;;5008715;28;20193;-84
2022/04/17 13:16:36;;;;;;;1.73;1.50;;;;;;;;;;4988051;28;20270;-85
2022/04/17 13:19:03;;;;;;;2.00;1.50;;;;;;;;;;5009192;28;20255;-85
2022/04/17 13:21:30;;;;;;;2.43;1.40;;;;;;;;;;5005341;28;20194;-85
2022/04/17 13:24:00;;;;;;;1.57;1.47;;;;;;;;;;5006366;28;20248;-84
2022/04/17 13:26:27;;;;;;;1.90;1.50;;;;;;;;;;5005213;28;20203;-84
2022/04/17 13:28:53;;;;;;;1.50;1.40;;;;;;;;;;4997768;28;20186;-85
2022/04/17 13:31:20;;;;;;;1.60;1.50;;;;;;;;;;4975919;28;20188;-85
2022/04/17 13:33:46;;;;;;;1.97;1.43;;;;;;;;;;4987541;28;20273;-84
2022/04/17 13:36:12;;;;;;;2.33;1.60;;;13.00;35.90;;;;;;5010329;28;20207;-84
2022/04/17 13:38:46;;;;;;;1.60;1.40;;;27.20;25.00;;;;;;5007980;28;20206;-84
2022/04/17 13:41:15;;;;;;;1.43;1.33;;;27.40;25.30;;;;;;5005546;28;20191;-82
2022/04/17 13:43:41;;;;;;;1.90;1.50;;;27.10;25.00;;;;;;4992535;28;20193;-83
2022/04/17 13:46:07;;;;;;;1.43;1.33;;;;;;;;;;5013830;28;20214;-85
2022/04/17 13:48:38;;;;;;;2.47;1.60;;;;;;;;;;5003487;28;20693;-84
2022/04/17 13:51:07;;;;;;;1.40;1.30;;;;;;;;;;5024041;28;20661;-85
2022/04/17 13:53:34;;;;;;;1.63;1.33;;;;;;;;;;4988948;28;20192;-85
2022/04/17 13:56:00;;;;;;;2.13;1.40;;;;;;;;;;4979926;28;20208;-85
2022/04/17 13:58:27;;;;;;;1.57;1.30;;;;;;;;;;4989684;28;20224;-85
2022/04/17 14:00:57;;;;;;;1.90;1.40;;;;;;;;;;4998404;28;20192;-84
2022/04/17 14:03:24;;;;;;;1.50;1.40;;;;;;;;;;4981465;28;20242;-85
2022/04/17 14:05:51;;;;;;;2.23;1.50;;;;;;;;;;4999143;28;20671;-85
2022/04/17 14:08:18;;;;;;;1.97;1.40;;;;;;;;;;4994631;28;20187;-85
2022/04/17 14:10:45;;;;;;;1.50;1.40;;;;;;;;;;5008948;28;20212;-85
2022/04/17 14:13:15;;;;;;;2.10;1.33;;;;;;;;;;4982412;28;20284;-84
2022/04/17 14:15:41;;;;;;;2.00;1.33;;;;;;;;;;4998816;28;20214;-85
2022/04/17 14:18:11;;;;;;;1.70;1.60;;;;;;;;;;5003718;28;20181;-84
2022/04/17 14:20:39;;;;;;;1.40;1.30;;;;;;;;;;4974671;28;20699;-84
2022/04/17 14:23:06;;;;;;;3.27;1.70;;;;;;;;;;4965994;28;20648;-84
2022/04/17 14:25:33;;;;;;;2.73;1.30;;;;;;;;;;4998574;28;20190;-83
2022/04/17 14:28:00;;;;;;;1.40;1.30;;;;;;;;;;4988250;28;20192;-84
2022/04/17 14:30:26;;;;;;;1.43;1.33;;;;;;;;;;4979552;28;20589;-85
2022/04/17 14:32:53;;;;;;;1.43;1.23;;;;;;;;;;5009881;28;20235;-85
2022/04/17 14:35:19;;;;;;;2.10;1.30;;;;;;;;;;4995376;28;20245;-84
2022/04/17 14:37:46;;;;;;;2.50;1.43;;;;;;;;;;4975714;28;20695;-84
2022/04/17 14:40:12;;;;;;;1.53;1.17;;;;;;;;;;4991735;28;20287;-84
2022/04/17 14:42:42;;;;;;;1.33;1.23;;;;;;;;;;4995582;28;20193;-84
2022/04/17 14:45:13;;;;;;;1.77;1.37;;;;;;;;;;4992927;28;20197;-85
2022/04/17 14:47:40;;;;;;;1.40;1.30;;;;;;;;;;5010918;28;20320;-84
2022/04/17 14:50:06;;;;;;;1.93;1.23;;;;;;;;;;5017128;28;20175;-84
2022/04/17 14:52:33;;;;;;;1.40;1.30;;;;;;;;;;5017663;28;20669;-84
2022/04/17 14:55:00;;;;;;;1.70;1.30;;;;;;;;;;5016768;28;20206;-85
2022/04/17 14:57:29;;;;;;;4.53;1.50;;;;;;;;;;5015668;28;20195;-84
2022/04/17 14:59:57;;;;;;;1.67;1.30;;;;;;;;;;5001452;28;20186;-85
2022/04/17 15:02:23;;;;;;;1.63;1.30;;;;;;;;;;5017616;28;20221;-84
2022/04/17 15:04:50;;;;;;;1.87;1.30;;;;;;;;;;5010713;28;20229;-84
2022/04/17 15:07:17;;;;;;;2.90;1.40;;;;;;;;;;4999494;28;20220;-84